createdAt,value
2023-03-26T00:00:12.663Z,92.40
2023-03-26T00:00:50.156Z,92.40
2023-03-26T00:01:24.804Z,92.70
2023-03-26T00:01:58.261Z,92.30
2023-03-26T00:02:30.125Z,92.40
2023-03-26T00:03:02.051Z,92.20
2023-03-26T00:03:35.484Z,92.70
2023-03-26T00:04:08.033Z,92.30
2023-03-26T00:04:42.485Z,92.20
2023-03-26T00:05:14.794Z,92.40
2023-03-26T00:05:48.163Z,92.40
2023-03-26T00:06:25.157Z,92.40
2023-03-26T00:06:57.156Z,92.80
2023-03-26T00:07:28.900Z,92.40
2023-03-26T00:08:00.629Z,92.70
2023-03-26T00:08:32.400Z,92.60
2023-03-26T00:09:05.329Z,92.80
2023-03-26T00:09:37.070Z,92.40
2023-03-26T00:10:09.340Z,92.20
2023-03-26T00:10:42.629Z,92.40
2023-03-26T00:11:17.033Z,92.20
2023-03-26T00:11:48.851Z,92.40
2023-03-26T00:12:20.612Z,92.80
2023-03-26T00:12:52.306Z,93.20
2023-03-26T00:13:24.038Z,92.40
2023-03-26T00:13:57.728Z,92.50
2023-03-26T00:14:30.365Z,92.30
2023-03-26T00:15:04.507Z,92.50
2023-03-26T00:15:37.799Z,92.50
2023-03-26T00:16:18.567Z,92.40
2023-03-26T00:16:50.445Z,92.40
2023-03-26T00:17:22.683Z,92.50
2023-03-26T00:17:56.148Z,92.20
2023-03-26T00:18:31.489Z,92.50
2023-03-26T00:19:04.032Z,92.90
2023-03-26T00:19:35.859Z,92.50
2023-03-26T00:20:08.964Z,92.30
2023-03-26T00:20:41.476Z,92.30
2023-03-26T00:21:16.077Z,93.10
2023-03-26T00:21:48.306Z,92.50
2023-03-26T00:22:20.086Z,92.50
2023-03-26T00:22:53.421Z,92.50
2023-03-26T00:23:26.995Z,92.80
2023-03-26T00:24:08.459Z,92.50
2023-03-26T00:24:40.720Z,92.40
2023-03-26T00:25:13.668Z,92.50
2023-03-26T00:25:45.701Z,92.50
2023-03-26T00:26:18.721Z,92.60
2023-03-26T00:26:53.350Z,92.50
2023-03-26T00:27:25.362Z,92.60
2023-03-26T00:27:57.300Z,92.50
2023-03-26T00:28:29.752Z,92.60
2023-03-26T00:29:03.409Z,92.30
2023-03-26T00:29:35.586Z,92.60
2023-03-26T00:30:08.216Z,92.50
2023-03-26T00:30:41.799Z,92.50
2023-03-26T00:31:15.545Z,92.70
2023-03-26T00:31:47.454Z,92.60
2023-03-26T00:32:19.153Z,92.60
2023-03-26T00:32:53.627Z,92.60
2023-03-26T00:33:26.511Z,92.90
2023-03-26T00:33:58.400Z,92.70
2023-03-26T00:34:30.852Z,92.30
2023-03-26T00:35:03.897Z,92.90
2023-03-26T00:35:38.923Z,92.50
2023-03-26T00:36:16.599Z,93.10
2023-03-26T00:36:54.805Z,93.10
2023-03-26T00:37:27.016Z,92.60
2023-03-26T00:37:59.770Z,92.30
2023-03-26T00:38:33.657Z,92.60
2023-03-26T00:39:05.967Z,92.30
2023-03-26T00:39:39.276Z,91.90
2023-03-26T00:40:11.532Z,93.10
2023-03-26T00:40:47.988Z,92.60
2023-03-26T00:41:30.942Z,92.80
2023-03-26T00:42:06.820Z,92.60
2023-03-26T00:42:39.343Z,92.60
2023-03-26T00:43:18.848Z,92.50
2023-03-26T00:43:56.407Z,92.70
2023-03-26T00:44:28.323Z,92.50
2023-03-26T00:45:00.498Z,92.70
2023-03-26T00:45:32.212Z,92.60
2023-03-26T00:46:04.248Z,92.50
2023-03-26T00:46:36.349Z,92.60
2023-03-26T00:47:08.301Z,92.60
2023-03-26T00:47:40.761Z,93.20
2023-03-26T00:48:13.068Z,92.30
2023-03-26T00:48:46.512Z,92.40
2023-03-26T00:49:18.714Z,92.90
2023-03-26T00:50:22.708Z,92.40
2023-03-26T00:50:54.513Z,92.70
2023-03-26T00:51:27.956Z,92.60
2023-03-26T00:51:59.717Z,92.80
2023-03-26T00:52:31.650Z,92.40
2023-03-26T00:53:03.461Z,92.60
2023-03-26T00:53:38.830Z,93.30
2023-03-26T00:54:11.006Z,92.60
2023-03-26T00:54:43.193Z,92.70
2023-03-26T00:55:15.965Z,92.60
2023-03-26T00:55:48.573Z,92.60
2023-03-26T00:56:20.497Z,93.10
2023-03-26T00:56:55.880Z,92.60
2023-03-26T00:57:35.509Z,92.60
2023-03-26T00:58:12.049Z,92.40
2023-03-26T00:58:44.887Z,92.60
2023-03-26T00:59:16.985Z,92.70
2023-03-26T00:59:51.716Z,92.70
2023-03-26T01:00:34.667Z,92.60
2023-03-26T01:01:10.764Z,92.40
2023-03-26T01:01:42.571Z,92.60
2023-03-26T01:02:17.425Z,93.30
2023-03-26T01:02:49.220Z,93.00
2023-03-26T01:03:26.915Z,92.40
2023-03-26T01:04:27.118Z,93.40
2023-03-26T01:05:02.883Z,92.60
2023-03-26T01:05:34.700Z,92.60
2023-03-26T01:06:12.689Z,92.60
2023-03-26T01:06:45.142Z,92.60
2023-03-26T01:07:22.565Z,92.60
2023-03-26T01:07:54.365Z,92.60
2023-03-26T01:08:35.233Z,92.60
2023-03-26T01:09:32.877Z,92.60
2023-03-26T01:10:04.975Z,92.60
2023-03-26T01:10:38.690Z,92.70
2023-03-26T01:11:24.582Z,93.30
2023-03-26T01:11:56.548Z,92.20
2023-03-26T01:12:32.027Z,93.50
2023-03-26T01:13:03.928Z,92.60
2023-03-26T01:13:38.444Z,92.70
2023-03-26T01:14:19.823Z,92.70
2023-03-26T01:14:56.542Z,92.60
2023-03-26T01:15:29.878Z,92.80
2023-03-26T01:16:03.181Z,92.80
2023-03-26T01:16:37.113Z,92.60
2023-03-26T01:17:09.492Z,92.60
2023-03-26T01:17:43.029Z,93.30
2023-03-26T01:18:15.255Z,92.60
2023-03-26T01:18:48.490Z,92.60
2023-03-26T01:19:31.706Z,92.20
2023-03-26T01:20:17.193Z,92.60
2023-03-26T01:20:52.419Z,92.60
2023-03-26T01:21:28.623Z,92.60
2023-03-26T01:22:00.630Z,93.30
2023-03-26T01:22:36.589Z,92.40
2023-03-26T01:23:08.773Z,92.40
2023-03-26T01:23:48.982Z,92.70
2023-03-26T01:24:22.057Z,92.40
2023-03-26T01:24:56.463Z,92.40
2023-03-26T01:25:44.265Z,92.70
2023-03-26T01:26:29.942Z,92.70
2023-03-26T01:27:29.089Z,92.60
2023-03-26T01:28:01.128Z,92.60
2023-03-26T01:28:36.234Z,92.60
2023-03-26T01:29:20.673Z,93.20
2023-03-26T01:30:03.911Z,92.60
2023-03-26T01:31:01.657Z,92.70
2023-03-26T01:32:00.940Z,92.60
2023-03-26T01:32:55.646Z,92.60
2023-03-26T01:33:38.814Z,93.10
2023-03-26T01:34:18.763Z,93.40
2023-03-26T01:35:13.082Z,92.40
2023-03-26T01:36:16.691Z,92.60
2023-03-26T01:37:13.111Z,92.60
2023-03-26T01:38:12.166Z,92.70
2023-03-26T01:38:48.640Z,92.50
2023-03-26T01:39:40.411Z,92.70
2023-03-26T01:40:28.670Z,92.70
2023-03-26T01:41:23.469Z,92.70
2023-03-26T01:42:03.417Z,92.70
2023-03-26T01:42:43.448Z,92.30
2023-03-26T01:43:38.807Z,92.70
2023-03-26T01:44:32.209Z,92.70
2023-03-26T01:45:16.651Z,92.70
2023-03-26T01:45:51.141Z,92.50
2023-03-26T01:46:25.607Z,92.90
2023-03-26T01:47:00.587Z,92.80
2023-03-26T01:47:35.366Z,92.70
2023-03-26T01:48:07.478Z,92.70
2023-03-26T01:48:44.720Z,92.70
2023-03-26T01:49:18.371Z,92.70
2023-03-26T01:49:50.164Z,92.50
2023-03-26T01:50:21.955Z,92.50
2023-03-26T01:50:56.297Z,92.50
2023-03-26T01:51:34.368Z,93.00
2023-03-26T01:52:17.472Z,92.70
2023-03-26T01:52:49.378Z,93.20
2023-03-26T01:53:21.196Z,92.80
2023-03-26T01:53:55.316Z,92.50
2023-03-26T01:54:31.310Z,92.70
2023-03-26T01:55:03.697Z,92.90
2023-03-26T01:55:49.405Z,93.00
2023-03-26T01:56:49.343Z,92.70
2023-03-26T01:57:32.650Z,92.70
2023-03-26T01:58:21.469Z,92.70
2023-03-26T01:59:28.744Z,92.70
2023-03-26T02:00:12.914Z,92.70
2023-03-26T02:01:12.630Z,92.80
2023-03-26T02:01:54.937Z,92.80
2023-03-26T02:02:46.381Z,92.80
2023-03-26T02:03:36.849Z,93.20
2023-03-26T02:04:31.507Z,92.80
2023-03-26T02:05:09.631Z,92.80
2023-03-26T02:05:53.638Z,92.80
2023-03-26T02:06:40.715Z,92.60
2023-03-26T02:07:24.630Z,92.80
2023-03-26T02:08:16.599Z,92.80
2023-03-26T02:09:04.445Z,93.00
2023-03-26T02:09:45.789Z,92.70
2023-03-26T02:10:28.993Z,92.80
2023-03-26T02:11:05.618Z,92.80
2023-03-26T02:11:40.714Z,92.60
2023-03-26T02:12:14.848Z,92.90
2023-03-26T02:12:47.561Z,93.30
2023-03-26T02:13:19.869Z,93.10
2023-03-26T02:13:52.907Z,93.30
2023-03-26T02:14:25.293Z,92.60
2023-03-26T02:15:00.956Z,92.80
2023-03-26T02:15:33.734Z,92.80
2023-03-26T02:16:09.427Z,92.90
2023-03-26T02:16:41.573Z,92.80
2023-03-26T02:17:13.542Z,91.90
2023-03-26T02:17:45.521Z,93.10
2023-03-26T02:18:17.331Z,92.60
2023-03-26T02:18:55.578Z,93.20
2023-03-26T02:19:27.406Z,93.20
2023-03-26T02:20:05.843Z,92.80
2023-03-26T02:20:39.647Z,92.80
2023-03-26T02:21:21.317Z,92.90
2023-03-26T02:21:53.139Z,92.80
2023-03-26T02:22:29.745Z,92.90
2023-03-26T02:23:03.936Z,92.80
2023-03-26T02:23:38.443Z,93.10
2023-03-26T02:24:10.295Z,92.80
2023-03-26T02:24:43.557Z,92.60
2023-03-26T02:25:19.432Z,92.80
2023-03-26T02:25:52.959Z,92.80
2023-03-26T02:26:25.480Z,92.90
2023-03-26T02:27:18.412Z,92.90
2023-03-26T02:27:52.578Z,92.60
2023-03-26T02:28:25.726Z,92.60
2023-03-26T02:28:58.895Z,93.60
2023-03-26T02:29:30.657Z,92.80
2023-03-26T02:30:04.720Z,92.80
2023-03-26T02:30:37.729Z,92.80
2023-03-26T02:31:13.675Z,93.10
2023-03-26T02:31:47.124Z,93.10
2023-03-26T02:32:20.068Z,92.80
2023-03-26T02:32:54.165Z,92.80
2023-03-26T02:33:31.738Z,92.80
2023-03-26T02:34:03.544Z,93.00
2023-03-26T02:34:38.203Z,92.80
2023-03-26T02:35:11.454Z,93.70
2023-03-26T02:35:46.271Z,92.80
2023-03-26T02:36:25.010Z,92.60
2023-03-26T02:36:57.650Z,92.80
2023-03-26T02:37:30.720Z,92.80
2023-03-26T02:38:14.248Z,92.60
2023-03-26T02:38:46.620Z,92.90
2023-03-26T02:39:19.453Z,92.90
2023-03-26T02:39:59.794Z,92.90
2023-03-26T02:40:36.674Z,92.80
2023-03-26T02:41:08.520Z,92.60
2023-03-26T02:41:54.580Z,92.60
2023-03-26T02:42:26.894Z,93.00
2023-03-26T02:42:59.027Z,93.60
2023-03-26T02:43:32.437Z,93.00
2023-03-26T02:44:05.751Z,92.90
2023-03-26T02:44:56.086Z,92.80
2023-03-26T02:46:03.201Z,92.90
2023-03-26T02:46:58.456Z,92.70
2023-03-26T02:47:57.530Z,92.90
2023-03-26T02:48:47.912Z,92.90
2023-03-26T02:49:25.324Z,93.10
2023-03-26T02:49:57.386Z,93.10
2023-03-26T02:50:54.151Z,92.60
2023-03-26T02:51:46.860Z,92.90
2023-03-26T02:52:27.585Z,93.10
2023-03-26T02:53:02.574Z,93.30
2023-03-26T02:53:39.323Z,92.60
2023-03-26T02:54:29.640Z,93.00
2023-03-26T02:55:10.866Z,93.30
2023-03-26T02:55:44.866Z,93.10
2023-03-26T02:56:16.860Z,92.70
2023-03-26T02:57:02.086Z,92.90
2023-03-26T02:58:00.797Z,92.90
2023-03-26T02:58:39.298Z,92.90
2023-03-26T02:59:11.198Z,92.70
2023-03-26T02:59:46.269Z,92.90
2023-03-26T03:00:46.725Z,92.90
2023-03-26T03:01:35.665Z,93.00
2023-03-26T03:02:07.768Z,92.70
2023-03-26T03:02:41.248Z,92.70
2023-03-26T03:03:36.440Z,92.90
2023-03-26T03:04:27.968Z,92.90
2023-03-26T03:05:01.624Z,93.00
2023-03-26T03:05:38.055Z,92.90
2023-03-26T03:06:18.867Z,93.00
2023-03-26T03:06:59.860Z,93.10
2023-03-26T03:07:32.513Z,93.00
2023-03-26T03:08:06.215Z,93.10
2023-03-26T03:08:41.503Z,93.00
2023-03-26T03:09:30.505Z,93.10
2023-03-26T03:10:41.103Z,92.90
2023-03-26T03:11:26.556Z,92.70
2023-03-26T03:11:58.467Z,93.60
2023-03-26T03:12:30.256Z,93.30
2023-03-26T03:13:04.015Z,93.00
2023-03-26T03:13:35.993Z,92.90
2023-03-26T03:14:07.862Z,93.00
2023-03-26T03:14:40.768Z,93.80
2023-03-26T03:15:13.113Z,93.20
2023-03-26T03:15:44.882Z,92.70
2023-03-26T03:16:17.248Z,92.90
2023-03-26T03:16:49.134Z,92.90
2023-03-26T03:17:20.934Z,92.70
2023-03-26T03:17:52.763Z,93.10
2023-03-26T03:18:58.310Z,92.30
2023-03-26T03:19:42.400Z,92.90
2023-03-26T03:20:14.249Z,93.00
2023-03-26T03:20:46.871Z,93.00
2023-03-26T03:21:18.635Z,93.00
2023-03-26T03:21:50.535Z,93.40
2023-03-26T03:22:22.379Z,92.00
2023-03-26T03:22:55.293Z,93.00
2023-03-26T03:23:27.060Z,93.80
2023-03-26T03:24:09.050Z,93.00
2023-03-26T03:24:45.976Z,93.00
2023-03-26T03:25:17.949Z,93.00
2023-03-26T03:25:52.598Z,92.70
2023-03-26T03:26:27.572Z,93.10
2023-03-26T03:26:59.860Z,93.00
2023-03-26T03:27:54.208Z,92.60
2023-03-26T03:28:26.603Z,93.00
2023-03-26T03:28:58.675Z,92.90
2023-03-26T03:29:30.536Z,92.70
2023-03-26T03:30:10.913Z,93.50
2023-03-26T03:31:03.456Z,92.90
2023-03-26T03:31:37.672Z,93.00
2023-03-26T03:32:13.818Z,93.00
2023-03-26T03:32:50.277Z,93.00
2023-03-26T03:33:26.188Z,92.80
2023-03-26T03:33:57.983Z,93.00
2023-03-26T03:34:30.086Z,93.00
2023-03-26T03:35:02.075Z,93.00
2023-03-26T03:35:35.065Z,93.00
2023-03-26T03:36:19.795Z,93.00
2023-03-26T03:36:54.621Z,93.10
2023-03-26T03:37:37.796Z,92.80
2023-03-26T03:38:12.704Z,93.30
2023-03-26T03:38:52.176Z,93.10
2023-03-26T03:39:26.092Z,93.10
2023-03-26T03:39:57.884Z,93.10
2023-03-26T03:40:31.751Z,92.80
2023-03-26T03:41:03.800Z,93.30
2023-03-26T03:41:37.638Z,93.00
2023-03-26T03:42:12.295Z,92.80
2023-03-26T03:42:44.460Z,93.00
2023-03-26T03:43:27.557Z,93.00
2023-03-26T03:44:26.078Z,93.00
2023-03-26T03:44:57.914Z,93.30
2023-03-26T03:45:49.142Z,93.70
2023-03-26T03:46:37.348Z,93.40
2023-03-26T03:47:10.881Z,93.10
2023-03-26T03:47:42.705Z,93.30
2023-03-26T03:48:14.561Z,93.30
2023-03-26T03:48:50.250Z,92.30
2023-03-26T03:49:33.345Z,93.50
2023-03-26T03:50:06.533Z,93.00
2023-03-26T03:50:38.446Z,93.00
2023-03-26T03:51:27.046Z,93.10
2023-03-26T03:52:02.562Z,93.00
2023-03-26T03:52:40.901Z,93.40
2023-03-26T03:53:15.870Z,93.40
2023-03-26T03:53:50.801Z,92.80
2023-03-26T03:54:32.541Z,93.20
2023-03-26T03:55:33.393Z,93.10
2023-03-26T03:56:09.976Z,92.90
2023-03-26T03:57:02.114Z,92.80
2023-03-26T03:57:43.240Z,92.90
2023-03-26T03:58:25.288Z,92.90
2023-03-26T03:58:59.456Z,93.10
2023-03-26T03:59:37.213Z,93.10
2023-03-26T04:00:12.995Z,93.10
2023-03-26T04:00:49.435Z,91.90
2023-03-26T04:01:50.757Z,93.10
2023-03-26T04:03:09.980Z,92.90
2023-03-26T04:03:42.018Z,93.70
2023-03-26T04:04:17.821Z,92.90
2023-03-26T04:05:11.533Z,93.10
2023-03-26T04:05:55.041Z,93.10
2023-03-26T04:06:30.198Z,93.10
2023-03-26T04:07:01.972Z,92.90
2023-03-26T04:07:51.753Z,92.90
2023-03-26T04:08:42.324Z,93.60
2023-03-26T04:09:14.105Z,93.20
2023-03-26T04:09:46.076Z,93.10
2023-03-26T04:10:22.139Z,93.10
2023-03-26T04:11:09.038Z,93.10
2023-03-26T04:12:03.782Z,92.90
2023-03-26T04:12:43.909Z,92.90
2023-03-26T04:13:20.824Z,93.70
2023-03-26T04:14:18.637Z,93.70
2023-03-26T04:15:08.991Z,93.20
2023-03-26T04:15:42.416Z,93.20
2023-03-26T04:16:14.668Z,93.80
2023-03-26T04:16:48.900Z,93.20
2023-03-26T04:17:23.710Z,93.80
2023-03-26T04:17:59.091Z,93.20
2023-03-26T04:18:32.398Z,93.50
2023-03-26T04:19:10.147Z,93.20
2023-03-26T04:19:43.980Z,93.20
2023-03-26T04:20:19.313Z,93.00
2023-03-26T04:20:57.143Z,93.30
2023-03-26T04:21:32.070Z,93.30
2023-03-26T04:22:03.983Z,93.10
2023-03-26T04:22:42.463Z,93.10
2023-03-26T04:23:17.975Z,93.30
2023-03-26T04:23:54.196Z,93.80
2023-03-26T04:24:45.356Z,93.50
2023-03-26T04:25:49.035Z,93.90
2023-03-26T04:26:24.281Z,93.40
2023-03-26T04:27:27.185Z,93.50
2023-03-26T04:28:08.559Z,94.00
2023-03-26T04:29:05.883Z,93.70
2023-03-26T04:29:44.941Z,93.60
2023-03-26T04:30:24.646Z,93.60
2023-03-26T04:31:03.826Z,94.10
2023-03-26T04:31:43.231Z,93.40
2023-03-26T04:32:29.636Z,93.50
2023-03-26T04:33:04.096Z,94.30
2023-03-26T04:33:41.458Z,93.70
2023-03-26T04:34:24.201Z,93.50
2023-03-26T04:35:17.184Z,94.50
2023-03-26T04:35:56.813Z,93.90
2023-03-26T04:36:32.094Z,93.40
2023-03-26T04:37:04.938Z,93.70
2023-03-26T04:37:44.294Z,94.30
2023-03-26T04:38:56.464Z,93.50
2023-03-26T04:39:38.927Z,93.70
2023-03-26T04:40:30.779Z,93.70
2023-03-26T04:41:15.771Z,93.70
2023-03-26T04:42:00.579Z,93.70
2023-03-26T04:42:46.281Z,93.50
2023-03-26T04:43:27.536Z,93.50
2023-03-26T04:44:05.497Z,93.80
2023-03-26T04:44:53.796Z,93.70
2023-03-26T04:45:26.419Z,94.40
2023-03-26T04:46:03.302Z,93.80
2023-03-26T04:46:37.857Z,94.20
2023-03-26T04:47:18.984Z,93.50
2023-03-26T04:47:52.171Z,94.00
2023-03-26T04:48:24.019Z,93.80
2023-03-26T04:48:56.096Z,93.80
2023-03-26T04:49:27.851Z,93.80
2023-03-26T04:49:59.792Z,94.10
2023-03-26T04:50:31.654Z,94.20
2023-03-26T04:51:38.554Z,93.50
2023-03-26T04:53:19.176Z,93.50
2023-03-26T04:54:13.452Z,93.60
2023-03-26T04:54:56.755Z,93.30
2023-03-26T04:55:42.027Z,93.60
2023-03-26T04:56:28.155Z,93.60
2023-03-26T04:57:39.352Z,93.60
2023-03-26T04:58:15.318Z,93.50
2023-03-26T04:59:01.234Z,93.30
2023-03-26T04:59:36.966Z,93.90
2023-03-26T05:00:16.316Z,93.50
2023-03-26T05:00:50.715Z,93.50
2023-03-26T05:01:24.535Z,93.50
2023-03-26T05:01:59.889Z,93.50
2023-03-26T05:02:33.498Z,93.70
2023-03-26T05:03:06.226Z,93.90
2023-03-26T05:03:40.644Z,93.50
2023-03-26T05:04:15.451Z,93.40
2023-03-26T05:04:49.840Z,93.60
2023-03-26T05:05:22.480Z,93.50
2023-03-26T05:05:55.633Z,94.40
2023-03-26T05:06:28.601Z,93.80
2023-03-26T05:07:00.739Z,93.50
2023-03-26T05:07:41.648Z,94.30
2023-03-26T05:08:14.940Z,94.00
2023-03-26T05:08:47.508Z,93.20
2023-03-26T05:09:34.839Z,93.40
2023-03-26T05:10:27.462Z,93.50
2023-03-26T05:11:11.381Z,93.50
2023-03-26T05:11:43.402Z,93.20
2023-03-26T05:12:16.481Z,93.60
2023-03-26T05:13:02.434Z,94.10
2023-03-26T05:13:42.770Z,93.70
2023-03-26T05:14:17.301Z,93.90
2023-03-26T05:14:49.330Z,93.50
2023-03-26T05:15:27.178Z,93.90
2023-03-26T05:16:01.683Z,93.40
2023-03-26T05:16:44.716Z,93.40
2023-03-26T05:17:18.865Z,93.90
2023-03-26T05:17:51.955Z,93.20
2023-03-26T05:18:41.887Z,93.20
2023-03-26T05:19:14.341Z,93.60
2023-03-26T05:19:47.018Z,93.50
2023-03-26T05:20:26.414Z,93.60
2023-03-26T05:20:58.368Z,93.60
2023-03-26T05:21:31.369Z,94.60
2023-03-26T05:22:03.353Z,93.60
2023-03-26T05:22:38.565Z,93.60
2023-03-26T05:23:20.472Z,93.90
2023-03-26T05:24:12.477Z,93.70
2023-03-26T05:24:44.404Z,93.40
2023-03-26T05:25:17.795Z,93.70
2023-03-26T05:25:50.043Z,93.40
2023-03-26T05:26:25.991Z,94.30
2023-03-26T05:26:57.769Z,93.50
2023-03-26T05:27:30.414Z,94.60
2023-03-26T05:28:02.657Z,93.90
2023-03-26T05:28:42.185Z,93.90
2023-03-26T05:30:01.458Z,93.40
2023-03-26T05:30:34.387Z,93.80
2023-03-26T05:31:08.178Z,93.40
2023-03-26T05:32:16.212Z,93.30
2023-03-26T05:32:49.471Z,94.00
2023-03-26T05:33:24.444Z,93.30
2023-03-26T05:34:06.687Z,93.50
2023-03-26T05:34:40.251Z,93.50
2023-03-26T05:35:12.699Z,93.90
2023-03-26T05:35:45.160Z,93.40
2023-03-26T05:36:17.135Z,93.80
2023-03-26T05:36:52.943Z,93.90
2023-03-26T05:37:39.984Z,93.60
2023-03-26T05:38:12.100Z,94.10
2023-03-26T05:38:49.426Z,93.70
2023-03-26T05:39:47.233Z,93.50
2023-03-26T05:40:21.938Z,93.50
2023-03-26T05:41:06.223Z,93.30
2023-03-26T05:41:39.662Z,93.40
2023-03-26T05:42:11.549Z,93.70
2023-03-26T05:42:58.707Z,93.40
2023-03-26T05:43:30.945Z,93.60
2023-03-26T05:44:15.905Z,93.60
2023-03-26T05:44:47.730Z,93.50
2023-03-26T05:45:26.952Z,93.60
2023-03-26T05:45:59.141Z,93.50
2023-03-26T05:46:34.601Z,93.30
2023-03-26T05:47:06.597Z,94.00
2023-03-26T05:47:39.220Z,94.20
2023-03-26T05:48:11.096Z,94.10
2023-03-26T05:48:42.947Z,93.70
2023-03-26T05:49:15.282Z,93.50
2023-03-26T05:49:47.107Z,93.60
2023-03-26T05:50:18.963Z,93.50
2023-03-26T05:50:53.242Z,93.50
2023-03-26T05:51:25.281Z,93.60
2023-03-26T05:52:06.909Z,93.30
2023-03-26T05:52:54.343Z,93.60
2023-03-26T05:53:45.174Z,93.70
2023-03-26T05:54:35.545Z,93.10
2023-03-26T05:55:13.360Z,93.80
2023-03-26T05:56:23.310Z,93.40
2023-03-26T05:57:13.881Z,93.60
2023-03-26T05:58:32.653Z,94.10
2023-03-26T05:59:23.900Z,93.50
2023-03-26T06:00:15.254Z,93.90
2023-03-26T06:01:02.537Z,93.50
2023-03-26T06:01:44.679Z,93.30
2023-03-26T06:02:47.042Z,93.60
2023-03-26T06:03:39.987Z,93.60
2023-03-26T06:04:20.319Z,93.70
2023-03-26T06:05:12.383Z,93.80
2023-03-26T06:06:01.195Z,93.50
2023-03-26T06:06:45.843Z,93.80
2023-03-26T06:07:19.627Z,93.80
2023-03-26T06:08:04.739Z,93.60
2023-03-26T06:09:02.261Z,93.50
2023-03-26T06:09:38.450Z,93.30
2023-03-26T06:10:10.630Z,93.30
2023-03-26T06:10:53.721Z,93.50
2023-03-26T06:11:25.733Z,93.60
2023-03-26T06:11:57.460Z,93.50
2023-03-26T06:12:29.251Z,93.50
2023-03-26T06:13:00.983Z,93.50
2023-03-26T06:13:32.940Z,93.90
2023-03-26T06:14:05.136Z,93.20
2023-03-26T06:14:38.015Z,93.50
2023-03-26T06:15:17.261Z,93.50
2023-03-26T06:16:05.443Z,93.50
2023-03-26T06:16:40.264Z,93.40
2023-03-26T06:17:24.476Z,93.50
2023-03-26T06:18:15.021Z,93.20
2023-03-26T06:19:24.925Z,93.20
2023-03-26T06:20:02.628Z,93.20
2023-03-26T06:20:42.070Z,93.80
2023-03-26T06:21:23.748Z,94.00
2023-03-26T06:21:59.944Z,94.20
2023-03-26T06:22:39.476Z,93.50
2023-03-26T06:23:37.560Z,93.50
2023-03-26T06:24:34.328Z,93.50
2023-03-26T06:25:27.829Z,93.30
2023-03-26T06:26:22.623Z,93.50
2023-03-26T06:27:06.235Z,93.20
2023-03-26T06:27:58.828Z,93.50
2023-03-26T06:28:49.268Z,93.20
2023-03-26T06:29:39.661Z,93.60
2023-03-26T06:30:30.251Z,93.20
2023-03-26T06:31:11.864Z,93.50
2023-03-26T06:32:09.199Z,93.20
2023-03-26T06:33:18.275Z,94.10
2023-03-26T06:33:54.018Z,94.30
2023-03-26T06:34:25.874Z,93.50
2023-03-26T06:34:58.009Z,93.20
2023-03-26T06:35:30.869Z,93.60
2023-03-26T06:36:02.820Z,93.30
2023-03-26T06:36:34.938Z,93.50
2023-03-26T06:37:40.295Z,93.30
2023-03-26T06:38:13.262Z,93.50
2023-03-26T06:38:45.241Z,93.50
2023-03-26T06:39:17.070Z,93.70
2023-03-26T06:40:09.635Z,93.50
2023-03-26T06:41:04.716Z,93.50
2023-03-26T06:41:54.940Z,93.50
2023-03-26T06:43:07.139Z,93.30
2023-03-26T06:43:45.605Z,93.70
2023-03-26T06:44:37.356Z,93.50
2023-03-26T06:45:29.316Z,94.10
2023-03-26T06:46:21.331Z,93.40
2023-03-26T06:47:11.980Z,93.60
2023-03-26T06:47:56.108Z,93.80
2023-03-26T06:48:46.984Z,93.60
2023-03-26T06:49:18.785Z,94.10
2023-03-26T06:50:20.404Z,93.60
2023-03-26T06:51:00.882Z,93.40
2023-03-26T06:51:55.925Z,92.70
2023-03-26T06:52:55.240Z,93.40
2023-03-26T06:54:22.618Z,93.40
2023-03-26T06:55:17.662Z,94.30
2023-03-26T06:56:07.092Z,93.70
2023-03-26T06:56:54.121Z,93.70
2023-03-26T06:57:49.078Z,93.70
2023-03-26T06:58:39.653Z,93.70
2023-03-26T06:59:30.373Z,94.00
2023-03-26T07:00:21.796Z,93.80
2023-03-26T07:01:22.850Z,93.70
2023-03-26T07:02:12.921Z,93.90
2023-03-26T07:03:04.665Z,93.90
2023-03-26T07:04:46.200Z,93.70
2023-03-26T07:05:36.918Z,93.70
2023-03-26T07:06:28.996Z,93.90
2023-03-26T07:07:24.684Z,94.70
2023-03-26T07:08:15.949Z,94.60
2023-03-26T07:09:07.625Z,94.40
2023-03-26T07:10:06.817Z,94.10
2023-03-26T07:10:49.124Z,94.00
2023-03-26T07:11:53.267Z,94.80
2023-03-26T07:12:43.898Z,94.80
2023-03-26T07:13:37.469Z,94.10
2023-03-26T07:14:30.447Z,93.90
2023-03-26T07:15:12.809Z,94.50
2023-03-26T07:15:50.735Z,94.80
2023-03-26T07:16:31.656Z,94.30
2023-03-26T07:17:32.511Z,94.30
2023-03-26T07:18:08.677Z,95.10
2023-03-26T07:18:41.990Z,94.60
2023-03-26T07:19:17.466Z,95.00
2023-03-26T07:19:49.372Z,94.50
2023-03-26T07:20:21.775Z,94.10
2023-03-26T07:20:54.268Z,94.90
2023-03-26T07:21:27.565Z,94.30
2023-03-26T07:22:00.273Z,94.30
2023-03-26T07:22:52.749Z,94.20
2023-03-26T07:23:56.547Z,94.20
2023-03-26T07:24:40.430Z,94.00
2023-03-26T07:25:15.725Z,94.20
2023-03-26T07:25:49.558Z,94.10
2023-03-26T07:26:59.497Z,94.10
2023-03-26T07:27:51.856Z,94.00
2023-03-26T07:29:04.955Z,93.90
2023-03-26T07:30:18.738Z,94.00
2023-03-26T07:31:37.891Z,94.00
2023-03-26T07:32:27.816Z,94.00
2023-03-26T07:33:30.467Z,94.00
2023-03-26T07:34:32.826Z,94.10
2023-03-26T07:35:24.069Z,94.50
2023-03-26T07:36:57.523Z,94.50
2023-03-26T07:37:57.549Z,93.80
2023-03-26T07:39:08.253Z,94.70
2023-03-26T07:40:39.206Z,94.10
2023-03-26T07:41:58.073Z,94.30
2023-03-26T07:43:00.469Z,93.90
2023-03-26T07:44:35.642Z,94.00
2023-03-26T07:45:39.722Z,94.20
2023-03-26T07:46:37.113Z,94.50
2023-03-26T07:47:34.254Z,94.20
2023-03-26T07:48:36.700Z,94.40
2023-03-26T07:49:21.864Z,94.30
2023-03-26T07:50:20.939Z,94.20
2023-03-26T07:51:12.320Z,94.20
2023-03-26T07:51:58.585Z,94.20
2023-03-26T07:52:49.100Z,94.30
2023-03-26T07:53:41.490Z,94.30
2023-03-26T07:54:21.884Z,94.30
2023-03-26T07:55:20.479Z,94.20
2023-03-26T07:56:33.888Z,94.20
2023-03-26T07:57:44.235Z,94.10
2023-03-26T07:58:59.272Z,94.00
2023-03-26T08:00:12.231Z,94.70
2023-03-26T08:01:25.996Z,94.40
2023-03-26T08:02:33.740Z,94.30
2023-03-26T08:04:24.348Z,94.50
2023-03-26T08:05:42.554Z,94.50
2023-03-26T08:06:34.584Z,94.90
2023-03-26T08:07:39.384Z,94.30
2023-03-26T08:08:37.450Z,94.50
2023-03-26T08:09:42.000Z,94.70
2023-03-26T08:11:10.377Z,95.50
2023-03-26T08:12:00.996Z,94.70
2023-03-26T08:13:18.909Z,94.60
2023-03-26T08:14:15.295Z,94.70
2023-03-26T08:15:03.067Z,94.60
2023-03-26T08:15:53.556Z,94.60
2023-03-26T08:16:33.515Z,94.60
2023-03-26T08:17:10.656Z,94.60
2023-03-26T08:18:08.637Z,94.60
2023-03-26T08:18:46.385Z,95.30
2023-03-26T08:19:51.704Z,94.30
2023-03-26T08:20:38.137Z,94.30
2023-03-26T08:21:39.685Z,94.60
2023-03-26T08:22:15.465Z,94.50
2023-03-26T08:22:54.036Z,94.60
2023-03-26T08:24:00.778Z,94.60
2023-03-26T08:25:01.666Z,94.60
2023-03-26T08:26:02.359Z,94.60
2023-03-26T08:26:44.027Z,94.50
2023-03-26T08:27:19.233Z,94.70
2023-03-26T08:28:02.510Z,94.50
2023-03-26T08:28:46.321Z,94.60
2023-03-26T08:29:29.285Z,94.60
2023-03-26T08:30:16.697Z,94.50
2023-03-26T08:30:48.581Z,94.50
2023-03-26T08:31:33.486Z,94.90
2023-03-26T08:32:13.673Z,94.50
2023-03-26T08:33:16.743Z,95.30
2023-03-26T08:33:49.995Z,94.80
2023-03-26T08:34:21.710Z,94.80
2023-03-26T08:34:53.445Z,94.90
2023-03-26T08:35:27.567Z,94.80
2023-03-26T08:35:59.342Z,94.70
2023-03-26T08:36:31.726Z,95.70
2023-03-26T08:37:04.414Z,94.60
2023-03-26T08:37:36.251Z,94.80
2023-03-26T08:38:16.650Z,94.50
2023-03-26T08:39:22.547Z,94.50
2023-03-26T08:39:54.435Z,94.80
2023-03-26T08:40:57.370Z,94.70
2023-03-26T08:41:35.244Z,94.70
2023-03-26T08:42:23.412Z,94.50
2023-03-26T08:43:34.260Z,94.70
2023-03-26T08:44:47.515Z,94.70
2023-03-26T08:45:41.219Z,94.70
2023-03-26T08:46:18.996Z,94.80
2023-03-26T08:47:24.171Z,94.70
2023-03-26T08:48:14.816Z,94.70
2023-03-26T08:49:05.632Z,94.80
2023-03-26T08:49:56.204Z,94.70
2023-03-26T08:51:15.809Z,94.50
2023-03-26T08:52:12.403Z,94.70
2023-03-26T08:53:12.048Z,94.70
2023-03-26T08:54:17.426Z,94.80
2023-03-26T08:55:20.569Z,94.80
2023-03-26T08:56:01.522Z,94.60
2023-03-26T08:57:10.327Z,94.80
2023-03-26T08:58:00.468Z,94.60
2023-03-26T08:58:46.702Z,94.70
2023-03-26T08:59:56.992Z,94.80
2023-03-26T09:00:53.512Z,94.80
2023-03-26T09:02:00.793Z,94.80
2023-03-26T09:02:56.553Z,94.80